Time;durP1;ratioP1;P1;durP2;ratioP2;P2;SDS_P1;SDS_P2;PMS_P1;PMS_P2;Temp;Humidity;BMP_temperature;BMP_pressure;BME280_temperature;BME280_humidity;BME280_pressure;Samples;Min_cycle;Max_cycle;Signal;HPM_P1;HPM_P2
2023/09/03 00:01:35;;;;;;;;;;;20.10;99.90;;;;;;5020398;28;19970;-71
2023/09/03 00:04:01;;;;;;;;;;;20.00;99.90;;;;;;5019198;28;19913;-70
2023/09/03 00:06:26;;;;;;;;;;;19.80;99.90;;;;;;5041113;28;20541;-71
2023/09/03 00:08:52;;;;;;;;;;;19.70;99.90;;;;;;5019194;28;20169;-71
2023/09/03 00:11:17;;;;;;;;;;;19.70;99.90;;;;;;5020385;28;19912;-71
2023/09/03 00:13:43;;;;;;;;;;;19.70;99.90;;;;;;5022909;28;20311;-71
2023/09/03 00:16:09;;;;;;;;;;;19.70;99.90;;;;;;5036440;28;20544;-72
2023/09/03 00:18:36;;;;;;;;;;;19.80;99.90;;;;;;5023906;28;19927;-72
2023/09/03 00:21:03;;;;;;;;;;;19.80;99.90;;;;;;5020574;28;19932;-71
2023/09/03 00:23:29;;;;;;;;;;;19.90;99.90;;;;;;5017906;28;19913;-71
2023/09/03 00:25:56;;;;;;;;;;;20.00;99.90;;;;;;5020609;28;20653;-71
2023/09/03 00:28:22;;;;;;;;;;;20.10;99.90;;;;;;5026277;28;19960;-71
2023/09/03 00:30:58;;;;;;;;;;;20.20;99.90;;;;;;5017798;28;20563;-71
2023/09/03 00:33:24;;;;;;;;;;;20.30;99.90;;;;;;5017032;28;19909;-71
2023/09/03 00:35:49;;;;;;;;;;;20.40;99.90;;;;;;5035875;28;19905;-71
2023/09/03 00:38:15;;;;;;;;;;;20.50;99.90;;;;;;5027304;28;19912;-71
2023/09/03 00:40:40;;;;;;;;;;;20.50;99.90;;;;;;5018396;28;19948;-72
2023/09/03 00:43:06;;;;;;;;;;;20.60;99.90;;;;;;5019465;28;19909;-71
2023/09/03 00:45:33;;;;;;;;;;;20.60;99.90;;;;;;5023416;28;19913;-71
2023/09/03 00:47:58;;;;;;;;;;;20.50;99.90;;;;;;5020532;28;19909;-71
2023/09/03 00:50:24;;;;;;;;;;;20.40;99.90;;;;;;5020456;28;19972;-71
2023/09/03 00:52:50;;;;;;;;;;;20.40;99.90;;;;;;5023714;28;19948;-71
2023/09/03 00:55:15;;;;;;;;;;;20.30;99.90;;;;;;5020890;28;19920;-71
2023/09/03 00:57:41;;;;;;;;;;;20.30;99.90;;;;;;5039711;28;20566;-71
2023/09/03 01:00:07;;;;;;;;;;;20.40;99.90;;;;;;5022208;28;19917;-71
2023/09/03 01:02:33;;;;;;;;;;;20.40;99.90;;;;;;5023848;28;19999;-71
2023/09/03 01:04:58;;;;;;;;;;;20.50;99.90;;;;;;5023286;28;19909;-71
2023/09/03 01:07:24;;;;;;;;;;;20.50;99.90;;;;;;5021281;28;19992;-71
2023/09/03 01:09:50;;;;;;;;;;;20.50;99.90;;;;;;5023651;28;20363;-71
2023/09/03 01:12:27;;;;;;;;;;;20.30;99.90;;;;;;5021770;28;19935;-71
2023/09/03 01:14:59;;;;;;;;;;;20.20;99.90;;;;;;5021090;28;19931;-71
2023/09/03 01:17:28;;;;;;;;;;;20.20;99.90;;;;;;5020687;28;19909;-71
2023/09/03 01:20:09;;;;;;;;;;;20.20;99.90;;;;;;5022518;28;20466;-71
2023/09/03 01:22:53;;;;;;;;;;;20.20;99.90;;;;;;5021028;28;20271;-71
2023/09/03 01:25:22;;;;;;;;;;;20.20;99.90;;;;;;5020881;28;19909;-71
2023/09/03 01:28:03;;;;;;;;;;;20.20;99.90;;;;;;5036644;28;19909;-71
2023/09/03 01:30:29;;;;;;;;;;;20.20;99.90;;;;;;5022111;28;19913;-71
2023/09/03 01:32:56;;;;;;;;;;;20.10;99.90;;;;;;5017881;28;19909;-71
2023/09/03 01:35:22;;;;;;;;;;;20.10;99.90;;;;;;5019346;28;19921;-71
2023/09/03 01:37:48;;;;;;;;;;;20.00;99.90;;;;;;5021372;28;19987;-71
2023/09/03 01:40:13;;;;;;;;;;;20.00;99.90;;;;;;5020793;28;20363;-71
2023/09/03 01:42:39;;;;;;;;;;;19.90;99.90;;;;;;5016551;28;19909;-71
2023/09/03 01:45:05;;;;;;;;;;;19.90;99.90;;;;;;5019763;28;19905;-71
2023/09/03 01:47:35;;;;;;;;;;;19.90;99.90;;;;;;5021462;28;20000;-72
2023/09/03 01:50:16;;;;;;;;;;;19.90;99.90;;;;;;5024832;28;20291;-71
2023/09/03 01:52:49;;;;;;;;;;;19.80;99.90;;;;;;5027673;28;19912;-71
2023/09/03 01:55:16;;;;;;;;;;;19.70;99.90;;;;;;5019482;28;20454;-71
2023/09/03 01:57:47;;;;;;;;;;;19.70;99.90;;;;;;5021677;28;19968;-71
2023/09/03 02:00:16;;;;;;;;;;;19.70;99.90;;;;;;5031430;28;19908;-72
2023/09/03 02:02:43;;;;;;;;;;;19.60;99.90;;;;;;5023191;28;20004;-71
2023/09/03 02:05:08;;;;;;;;;;;19.70;99.90;;;;;;5018942;28;19920;-71
2023/09/03 02:07:35;;;;;;;;;;;19.60;99.90;;;;;;5019225;28;20359;-71
2023/09/03 02:10:00;;;;;;;;;;;19.50;99.90;;;;;;5020406;28;19948;-71
2023/09/03 02:12:26;;;;;;;;;;;19.40;99.90;;;;;;5020841;28;19959;-71
2023/09/03 02:14:52;;;;;;;;;;;19.40;99.90;;;;;;5019974;28;19913;-71
2023/09/03 02:17:21;;;;;;;;;;;19.30;99.90;;;;;;5020470;28;19909;-71
2023/09/03 02:19:49;;;;;;;;;;;19.20;99.90;;;;;;5020463;28;19905;-71
2023/09/03 02:22:15;;;;;;;;;;;19.10;99.90;;;;;;5020370;28;19913;-71
2023/09/03 02:24:41;;;;;;;;;;;19.00;99.90;;;;;;5021110;28;20391;-71
2023/09/03 02:27:08;;;;;;;;;;;18.90;99.90;;;;;;5020519;28;19908;-71
2023/09/03 02:29:33;;;;;;;;;;;18.90;99.90;;;;;;5035762;28;20605;-71
2023/09/03 02:31:59;;;;;;;;;;;18.90;99.90;;;;;;5018698;28;19913;-71
2023/09/03 02:34:25;;;;;;;;;;;18.90;99.90;;;;;;5022692;28;20275;-71
2023/09/03 02:36:50;;;;;;;;;;;18.90;99.90;;;;;;5019310;28;19909;-71
2023/09/03 02:39:16;;;;;;;;;;;18.90;99.90;;;;;;5019752;28;20305;-71
2023/09/03 02:41:41;;;;;;;;;;;19.00;99.90;;;;;;5021771;28;19905;-71
2023/09/03 02:44:09;;;;;;;;;;;18.90;99.90;;;;;;5019475;28;19984;-70
2023/09/03 02:46:34;;;;;;;;;;;18.90;99.90;;;;;;5020517;28;19913;-71
2023/09/03 02:49:00;;;;;;;;;;;18.80;99.90;;;;;;5019318;28;19916;-71
2023/09/03 02:51:25;;;;;;;;;;;18.80;99.90;;;;;;5018074;28;19909;-71
2023/09/03 02:53:51;;;;;;;;;;;18.80;99.90;;;;;;5022454;28;20621;-71
2023/09/03 02:56:17;;;;;;;;;;;18.70;99.90;;;;;;5016647;28;19983;-71
2023/09/03 02:58:45;;;;;;;;;;;18.70;99.90;;;;;;5017972;28;20201;-72
2023/09/03 03:01:12;;;;;;;;;;;18.70;99.90;;;;;;5021260;28;20419;-71
2023/09/03 03:03:38;;;;;;;;;;;18.60;99.90;;;;;;5035716;28;20352;-71
2023/09/03 03:06:03;;;;;;;;;;;18.70;99.90;;;;;;5022417;28;19967;-71
2023/09/03 03:08:29;;;;;;;;;;;18.70;99.90;;;;;;5021744;28;19909;-71
2023/09/03 03:11:05;;;;;;;;;;;18.70;99.90;;;;;;5020345;28;19904;-71
2023/09/03 03:13:30;;;;;;;;;;;18.70;99.90;;;;;;5017566;28;19909;-71
2023/09/03 03:15:56;;;;;;;;;;;18.60;99.90;;;;;;5036449;28;19909;-71
2023/09/03 03:18:22;;;;;;;;;;;18.60;99.90;;;;;;5023770;28;19913;-71
2023/09/03 03:20:47;;;;;;;;;;;18.70;99.90;;;;;;5019576;28;20004;-71
2023/09/03 03:23:13;;;;;;;;;;;18.80;99.90;;;;;;5016927;28;19979;-71
2023/09/03 03:25:38;;;;;;;;;;;18.90;99.90;;;;;;5038324;28;19908;-71
2023/09/03 03:28:04;;;;;;;;;;;18.90;99.90;;;;;;5020064;28;20535;-71
2023/09/03 03:30:30;;;;;;;;;;;19.00;99.90;;;;;;5018107;28;19968;-71
2023/09/03 03:32:56;;;;;;;;;;;19.20;99.90;;;;;;5038248;28;20518;-71
2023/09/03 03:35:21;;;;;;;;;;;19.20;99.90;;;;;;5020655;28;19999;-71
2023/09/03 03:37:47;;;;;;;;;;;19.20;99.90;;;;;;5034803;28;19909;-70
2023/09/03 03:40:12;;;;;;;;;;;19.20;99.90;;;;;;5019675;28;19913;-71
2023/09/03 03:42:38;;;;;;;;;;;19.30;99.90;;;;;;5015370;28;19913;-71
2023/09/03 03:45:04;;;;;;;;;;;19.20;99.90;;;;;;5021552;28;20601;-71
2023/09/03 03:47:29;;;;;;;;;;;19.10;99.90;;;;;;5017817;28;19912;-71
2023/09/03 03:49:55;;;;;;;;;;;19.00;99.90;;;;;;5019089;28;20409;-71
2023/09/03 03:52:20;;;;;;;;;;;19.10;99.90;;;;;;5021247;28;19928;-71
2023/09/03 03:54:47;;;;;;;;;;;19.10;99.90;;;;;;5020398;28;19909;-71
2023/09/03 03:57:12;;;;;;;;;;;19.10;99.90;;;;;;5034341;28;20350;-71
2023/09/03 03:59:39;;;;;;;;;;;19.10;99.90;;;;;;5023524;28;19909;-71
2023/09/03 04:02:04;;;;;;;;;;;19.20;99.90;;;;;;5020991;28;20327;-71
2023/09/03 04:04:30;;;;;;;;;;;19.20;99.90;;;;;;5017597;28;19905;-71
2023/09/03 04:06:55;;;;;;;;;;;19.30;99.90;;;;;;5022049;28;20316;-71
2023/09/03 04:09:21;;;;;;;;;;;19.30;99.90;;;;;;5020111;28;19959;-71
2023/09/03 04:11:48;;;;;;;;;;;19.40;99.90;;;;;;5029526;28;19945;-71
2023/09/03 04:14:14;;;;;;;;;;;19.40;99.90;;;;;;5022764;28;19939;-71
2023/09/03 04:16:39;;;;;;;;;;;19.50;99.90;;;;;;5022203;28;20403;-71
2023/09/03 04:19:05;;;;;;;;;;;19.50;99.90;;;;;;5015562;28;20399;-71
2023/09/03 04:21:31;;;;;;;;;;;19.40;99.90;;;;;;5022328;28;19905;-71
2023/09/03 04:23:56;;;;;;;;;;;19.40;99.90;;;;;;5014771;28;19905;-71
2023/09/03 04:26:22;;;;;;;;;;;19.40;99.90;;;;;;5021657;28;20327;-71
2023/09/03 04:28:47;;;;;;;;;;;19.40;99.90;;;;;;5017674;28;19917;-71
2023/09/03 04:31:13;;;;;;;;;;;19.40;99.90;;;;;;5017467;28;19913;-71
2023/09/03 04:33:38;;;;;;;;;;;19.40;99.90;;;;;;5020614;28;19932;-71
2023/09/03 04:36:04;;;;;;;;;;;19.40;99.90;;;;;;5018736;28;19935;-71
2023/09/03 04:38:30;;;;;;;;;;;19.40;99.90;;;;;;5020300;28;19916;-71
2023/09/03 04:40:56;;;;;;;;;;;19.40;99.90;;;;;;5014510;28;19975;-71
2023/09/03 04:43:22;;;;;;;;;;;19.40;99.90;;;;;;5019464;28;20651;-71
2023/09/03 04:45:48;;;;;;;;;;;19.40;99.90;;;;;;5015277;28;19978;-71
2023/09/03 04:48:15;;;;;;;;;;;19.60;99.90;;;;;;5018950;28;19913;-71
2023/09/03 04:50:40;;;;;;;;;;;19.60;99.90;;;;;;5019921;28;20370;-71
2023/09/03 04:53:07;;;;;;;;;;;19.80;99.90;;;;;;5015925;28;19917;-71
2023/09/03 04:55:33;;;;;;;;;;;19.90;99.90;;;;;;5018130;28;19913;-71
2023/09/03 04:57:59;;;;;;;;;;;20.00;99.90;;;;;;5020025;28;20010;-71
2023/09/03 05:00:24;;;;;;;;;;;20.10;99.90;;;;;;5015770;28;20053;-69
2023/09/03 05:02:50;;;;;;;;;;;20.10;99.90;;;;;;5014525;28;20255;-69
2023/09/03 05:05:17;;;;;;;;;;;20.20;99.90;;;;;;5018951;28;19947;-69
2023/09/03 05:07:43;;;;;;;;;;;20.30;99.90;;;;;;5019660;28;19912;-70
2023/09/03 05:10:09;;;;;;;;;;;20.40;99.90;;;;;;5014251;28;19909;-72
2023/09/03 05:12:34;;;;;;;;;;;20.40;99.90;;;;;;5018513;28;20307;-71
2023/09/03 05:15:00;;;;;;;;;;;20.40;99.90;;;;;;5013171;28;19912;-71
2023/09/03 05:17:25;;;;;;;;;;;20.40;99.90;;;;;;5018742;28;20406;-71
2023/09/03 05:19:51;;;;;;;;;;;20.40;99.90;;;;;;5019906;28;19920;-71
2023/09/03 05:22:17;;;;;;;;;;;20.40;99.90;;;;;;5021431;28;19909;-71
2023/09/03 05:24:42;;;;;;;;;;;20.50;99.90;;;;;;5018465;28;21298;-72
2023/09/03 05:27:08;;;;;;;;;;;20.60;99.90;;;;;;5025615;28;20462;-72
2023/09/03 05:29:34;;;;;;;;;;;20.60;99.90;;;;;;5021999;28;20041;-71
2023/09/03 05:31:59;;;;;;;;;;;20.70;99.90;;;;;;5021617;28;19952;-71
2023/09/03 05:34:25;;;;;;;;;;;20.60;99.90;;;;;;5018807;28;19920;-71
2023/09/03 05:36:51;;;;;;;;;;;20.50;99.90;;;;;;5038473;28;20534;-71
2023/09/03 05:39:16;;;;;;;;;;;20.50;99.90;;;;;;5040763;28;19948;-71
2023/09/03 05:41:42;;;;;;;;;;;20.50;99.90;;;;;;5021662;28;19967;-71
2023/09/03 05:44:09;;;;;;;;;;;20.40;99.90;;;;;;5017997;28;20616;-71
2023/09/03 05:46:35;;;;;;;;;;;20.10;99.90;;;;;;5022992;28;19967;-71
2023/09/03 05:49:00;;;;;;;;;;;20.10;99.90;;;;;;5022411;28;19909;-71
2023/09/03 05:51:26;;;;;;;;;;;20.00;99.90;;;;;;5018732;28;19977;-71
2023/09/03 05:53:52;;;;;;;;;;;20.10;99.90;;;;;;5021811;28;19913;-70
2023/09/03 05:56:17;;;;;;;;;;;20.10;99.90;;;;;;5024728;28;19916;-71
2023/09/03 05:58:43;;;;;;;;;;;20.30;99.90;;;;;;5018084;28;19975;-71
2023/09/03 06:01:09;;;;;;;;;;;20.40;99.90;;;;;;5023106;28;19913;-71
2023/09/03 06:03:35;;;;;;;;;;;20.50;99.90;;;;;;5018219;28;20548;-71
2023/09/03 06:06:02;;;;;;;;;;;20.50;99.90;;;;;;5020728;28;19927;-71
2023/09/03 06:08:28;;;;;;;;;;;20.60;99.90;;;;;;5016457;28;19944;-71
2023/09/03 06:10:56;;;;;;;;;;;20.50;99.90;;;;;;5018874;28;19937;-71
2023/09/03 06:13:25;;;;;;;;;;;20.60;99.90;;;;;;5014406;28;19913;-70
2023/09/03 06:15:51;;;;;;;;;;;20.60;99.90;;;;;;5019318;28;19919;-71
2023/09/03 06:18:16;;;;;;;;;;;20.50;99.90;;;;;;5035080;28;19909;-71
2023/09/03 06:20:42;;;;;;;;;;;20.50;99.90;;;;;;5017385;28;20004;-72
2023/09/03 06:23:08;;;;;;;;;;;20.40;99.90;;;;;;5018424;28;19939;-71
2023/09/03 06:25:35;;;;;;;;;;;20.30;99.90;;;;;;5014905;28;20493;-71
2023/09/03 06:28:00;;;;;;;;;;;20.30;99.90;;;;;;5033128;28;20007;-71
2023/09/03 06:30:26;;;;;;;;;;;20.30;99.90;;;;;;5013015;28;20019;-71
2023/09/03 06:32:52;;;;;;;;;;;20.40;99.90;;;;;;5035749;28;19917;-71
2023/09/03 06:35:18;;;;;;;;;;;20.50;99.90;;;;;;5021464;28;20348;-71
2023/09/03 06:37:43;;;;;;;;;;;20.60;99.90;;;;;;5025325;28;19913;-71
2023/09/03 06:40:09;;;;;;;;;;;20.70;99.90;;;;;;5014024;28;19905;-71
2023/09/03 06:42:35;;;;;;;;;;;20.90;99.90;;;;;;5023251;28;19913;-71
2023/09/03 06:45:01;;;;;;;;;;;21.00;99.90;;;;;;5013373;28;19963;-71
2023/09/03 06:47:27;;;;;;;;;;;21.10;99.90;;;;;;5020703;28;19909;-71
2023/09/03 06:49:52;;;;;;;;;;;21.00;99.90;;;;;;5021822;28;19986;-71
2023/09/03 06:52:18;;;;;;;;;;;21.00;99.90;;;;;;5020503;28;19912;-72
2023/09/03 06:54:44;;;;;;;;;;;21.10;99.90;;;;;;5018564;28;19917;-71
2023/09/03 06:57:09;;;;;;;;;;;21.00;99.90;;;;;;5019344;28;20003;-72
2023/09/03 06:59:35;;;;;;;;;;;21.00;99.90;;;;;;5018230;28;20279;-71
2023/09/03 07:02:01;;;;;;;;;;;21.00;99.90;;;;;;5014878;28;19905;-71
2023/09/03 07:04:26;;;;;;;;;;;21.00;99.90;;;;;;5020087;28;19936;-70
2023/09/03 07:06:52;;;;;;;;;;;20.90;99.90;;;;;;5022004;28;20000;-67
2023/09/03 07:09:17;;;;;;;;;;;20.90;99.90;;;;;;5033611;28;19963;-74
2023/09/03 07:11:43;;;;;;;;;;;20.90;99.90;;;;;;5019873;28;20559;-73
2023/09/03 07:14:08;;;;;;;;;;;20.90;99.90;;;;;;5018798;28;19917;-72
2023/09/03 07:16:34;;;;;;;;;;;20.90;99.90;;;;;;5014746;28;19913;-73
2023/09/03 07:19:00;;;;;;;;;;;20.90;99.90;;;;;;5020351;28;20015;-72
2023/09/03 07:21:25;;;;;;;;;;;21.00;99.90;;;;;;5019342;28;19908;-72
2023/09/03 07:23:52;;;;;;;;;;;21.20;99.90;;;;;;5018022;28;19909;-71
2023/09/03 07:26:17;;;;;;;;;;;21.30;99.90;;;;;;5024487;28;19951;-73
2023/09/03 07:28:43;;;;;;;;;;;21.30;99.90;;;;;;5020787;28;20687;-72
2023/09/03 07:31:08;;;;;;;;;;;21.40;99.90;;;;;;5015523;28;19908;-73
2023/09/03 07:33:34;;;;;;;;;;;21.50;99.90;;;;;;5022388;28;20356;-72
2023/09/03 07:35:59;;;;;;;;;;;21.50;99.90;;;;;;5017845;28;19909;-72
2023/09/03 07:38:27;;;;;;;;;;;21.50;99.90;;;;;;5017800;28;20004;-72
2023/09/03 07:40:53;;;;;;;;;;;21.60;99.90;;;;;;5018777;28;19909;-72
2023/09/03 07:43:18;;;;;;;;;;;21.70;99.90;;;;;;5019017;28;20371;-72
2023/09/03 07:45:44;;;;;;;;;;;21.80;99.90;;;;;;5015437;28;20068;-71
2023/09/03 07:48:10;;;;;;;;;;;21.80;99.90;;;;;;5020917;28;19947;-72
2023/09/03 07:50:38;;;;;;;;;;;21.70;99.90;;;;;;5019140;28;19940;-72
2023/09/03 07:53:04;;;;;;;;;;;21.60;99.90;;;;;;5018104;28;19994;-73
2023/09/03 07:55:30;;;;;;;;;;;21.60;99.90;;;;;;5019965;28;20355;-72
2023/09/03 07:57:56;;;;;;;;;;;21.60;99.90;;;;;;5014535;28;19905;-73
2023/09/03 08:00:21;;;;;;;;;;;21.60;99.90;;;;;;5018960;28;19955;-72
2023/09/03 08:02:47;;;;;;;;;;;21.70;99.90;;;;;;5014007;28;19905;-73
2023/09/03 08:05:13;;;;;;;;;;;21.80;99.90;;;;;;5018583;28;19920;-72
2023/09/03 08:07:38;;;;;;;;;;;21.90;99.90;;;;;;5013513;28;19992;-73
2023/09/03 08:10:04;;;;;;;;;;;22.00;99.90;;;;;;5019219;28;19943;-73
2023/09/03 08:12:30;;;;;;;;;;;22.10;99.90;;;;;;5020021;28;20363;-73
2023/09/03 08:14:55;;;;;;;;;;;22.20;99.90;;;;;;5019321;28;19905;-73
2023/09/03 08:17:22;;;;;;;;;;;22.20;99.90;;;;;;5016348;28;19912;-72
2023/09/03 08:19:48;;;;;;;;;;;22.30;99.90;;;;;;5014453;28;19905;-72
2023/09/03 08:22:13;;;;;;;;;;;22.40;99.90;;;;;;5018354;28;19987;-72
2023/09/03 08:24:39;;;;;;;;;;;22.30;99.90;;;;;;5033013;28;20614;-73
2023/09/03 08:27:04;;;;;;;;;;;22.10;99.90;;;;;;5019122;28;19916;-73
2023/09/03 08:29:30;;;;;;;;;;;22.10;99.90;;;;;;5030942;28;19913;-71
2023/09/03 08:31:55;;;;;;;;;;;22.10;99.90;;;;;;5032785;28;19909;-72
2023/09/03 08:34:21;;;;;;;;;;;22.20;99.90;;;;;;5017491;28;20459;-69
2023/09/03 08:36:46;;;;;;;;;;;22.10;99.90;;;;;;5018226;28;19915;-70
2023/09/03 08:45:19;;;;;;;;;;;22.20;99.90;;;;;;4992161;28;19974;-72
2023/09/03 08:47:45;;;;;;;;;;;22.20;99.90;;;;;;4993912;28;19935;-71
2023/09/03 08:50:15;;;;;;;;;;;22.20;99.90;;;;;;4997825;28;19968;-71
2023/09/03 08:52:44;;;;;;;;;;;22.20;99.90;;;;;;4989343;28;19917;-71
2023/09/03 08:55:12;;;;;;;;;;;22.30;99.90;;;;;;4993085;28;19906;-71
2023/09/03 08:57:38;;;;;;;;;;;22.30;99.90;;;;;;4995596;28;19964;-71
2023/09/03 09:00:07;;;;;;;;;;;22.40;99.90;;;;;;4992906;28;19949;-70
2023/09/03 09:02:33;;;;;;;;;;;22.50;99.90;;;;;;4980098;28;20068;-71
2023/09/03 09:05:00;;;;;;;;;;;22.60;99.90;;;;;;4992640;28;19909;-71
2023/09/03 09:07:25;;;;;;;;;;;22.60;99.90;;;;;;4997614;28;20017;-68
2023/09/03 09:09:52;;;;;;;;;;;22.70;99.90;;;;;;4979333;28;20061;-71
2023/09/03 09:12:37;;;;;;;;;;;22.70;99.90;;;;;;4992053;28;19905;-71
2023/09/03 09:15:04;;;;;;;;;;;22.80;99.90;;;;;;4969691;28;19928;-72
2023/09/03 09:17:40;;;;;;;;;;;22.80;99.90;;;;;;4977401;28;19980;-72
2023/09/03 09:20:06;;;;;;;;;;;22.80;99.90;;;;;;4992458;28;20320;-70
2023/09/03 09:22:52;;;;;;;;;;;22.80;99.90;;;;;;4997148;28;20394;-70
2023/09/03 09:25:19;;;;;;;;;;;22.90;99.90;;;;;;4996121;28;20391;-69
2023/09/03 09:27:44;;;;;;;;;;;23.10;99.90;;;;;;4983704;28;19976;-69
2023/09/03 09:30:10;;;;;;;;;;;23.30;99.90;;;;;;4995448;28;20305;-69
2023/09/03 09:32:36;;;;;;;;;;;23.40;99.90;;;;;;4979282;28;19935;-72
2023/09/03 09:35:02;;;;;;;;;;;23.50;99.90;;;;;;4993182;28;19985;-72
2023/09/03 09:37:48;;;;;;;;;;;23.70;99.90;;;;;;4998522;28;19906;-70
2023/09/03 09:40:15;;;;;;;;;;;23.70;99.90;;;;;;4978349;28;21250;-70
2023/09/03 09:42:57;;;;;;;;;;;23.80;99.90;;;;;;4993090;28;19906;-71
2023/09/03 09:45:22;;;;;;;;;;;23.90;99.90;;;;;;4996667;28;19906;-71
2023/09/03 09:48:01;;;;;;;;;;;24.10;99.90;;;;;;4989345;28;19919;-72
2023/09/03 09:50:31;;;;;;;;;;;24.40;99.90;;;;;;4994261;28;20020;-71
2023/09/03 09:52:56;;;;;;;;;;;24.60;99.90;;;;;;4986623;28;19968;-69
2023/09/03 09:55:22;;;;;;;;;;;24.70;99.90;;;;;;4989367;28;19953;-70
2023/09/03 09:57:50;;;;;;;;;;;24.80;99.90;;;;;;4979302;28;19979;-71
2023/09/03 10:00:30;;;;;;;;;;;24.80;99.90;;;;;;4971764;28;19953;-71
2023/09/03 10:02:56;;;;;;;;;;;24.80;99.90;;;;;;4993887;28;19912;-71
2023/09/03 10:05:22;;;;;;;;;;;24.70;99.90;;;;;;4991076;28;20276;-69
2023/09/03 10:07:47;;;;;;;;;;;24.80;99.90;;;;;;4977293;28;19909;-70
2023/09/03 10:10:14;;;;;;;;;;;25.00;99.90;;;;;;4994326;28;19913;-70
2023/09/03 10:12:40;;;;;;;;;;;24.90;99.90;;;;;;4988725;28;19910;-71
2023/09/03 10:15:05;;;;;;;;;;;25.10;99.90;;;;;;4989957;28;20291;-73
2023/09/03 10:17:33;;;;;;;;;;;25.20;99.90;;;;;;4992672;28;19981;-75
2023/09/03 10:20:04;;;;;;;;;;;25.30;99.90;;;;;;4990947;28;20341;-68
2023/09/03 10:22:30;;;;;;;;;;;25.40;99.90;;;;;;4985268;28;19909;-71
2023/09/03 10:24:58;;;;;;;;;;;25.60;99.90;;;;;;4991791;28;20287;-70
2023/09/03 10:27:27;;;;;;;;;;;25.70;99.90;;;;;;4991398;28;20253;-76
2023/09/03 10:29:54;;;;;;;;;;;25.80;99.90;;;;;;4992323;28;20513;-77
2023/09/03 10:32:20;;;;;;;;;;;26.00;99.90;;;;;;4991063;28;19916;-76
2023/09/03 10:34:46;;;;;;;;;;;26.20;99.50;;;;;;4990299;28;19913;-76
2023/09/03 10:37:12;;;;;;;;;;;26.30;99.20;;;;;;4977301;28;19963;-77
2023/09/03 10:39:45;;;;;;;;;;;26.30;99.30;;;;;;4988473;28;20241;-77
2023/09/03 10:42:14;;;;;;;;;;;26.50;99.00;;;;;;4997329;28;20297;-76
2023/09/03 10:44:44;;;;;;;;;;;27.00;98.60;;;;;;4992229;28;19905;-81
2023/09/03 10:47:17;;;;;;;;;;;27.10;98.20;;;;;;4977285;28;20039;-78
2023/09/03 10:49:44;;;;;;;;;;;27.30;98.30;;;;;;4967912;28;19920;-74
2023/09/03 10:52:31;;;;;;;;;;;27.60;98.40;;;;;;4992875;28;19917;-76
2023/09/03 10:55:16;;;;;;;;;;;27.80;97.50;;;;;;4991768;28;19924;-76
2023/09/03 10:57:45;;;;;;;;;;;26.70;98.30;;;;;;4992858;28;19917;-77
2023/09/03 11:00:16;;;;;;;;;;;26.90;98.70;;;;;;4994093;28;20000;-75
2023/09/03 11:02:42;;;;;;;;;;;27.20;98.30;;;;;;4987809;28;20435;-73
2023/09/03 11:05:21;;;;;;;;;;;27.40;97.50;;;;;;4993742;28;20378;-75
2023/09/03 11:07:48;;;;;;;;;;;27.70;97.00;;;;;;4987781;28;19913;-74
2023/09/03 11:10:27;;;;;;;;;;;27.60;97.20;;;;;;4986970;28;19914;-75
2023/09/03 11:12:53;;;;;;;;;;;27.60;96.90;;;;;;4991443;28;19975;-74
2023/09/03 11:15:20;;;;;;;;;;;27.70;96.50;;;;;;5000710;28;20024;-74
2023/09/03 11:17:54;;;;;;;;;;;27.90;96.40;;;;;;4987506;28;19909;-74
2023/09/03 11:20:42;;;;;;;;;;;27.80;96.60;;;;;;4995604;28;19960;-74
2023/09/03 11:23:10;;;;;;;;;;;27.50;96.00;;;;;;4990003;28;20249;-74
2023/09/03 11:25:37;;;;;;;;;;;27.20;95.80;;;;;;4991805;28;19955;-74
2023/09/03 11:28:04;;;;;;;;;;;27.00;96.20;;;;;;4985316;28;19948;-70
2023/09/03 11:30:30;;;;;;;;;;;27.10;96.60;;;;;;4991187;28;19905;-72
2023/09/03 11:32:56;;;;;;;;;;;27.00;96.10;;;;;;4991298;28;19909;-71
2023/09/03 11:35:23;;;;;;;;;;;27.00;96.40;;;;;;4997712;28;19955;-71
2023/09/03 11:37:50;;;;;;;;;;;27.00;96.20;;;;;;4988196;28;19909;-69
2023/09/03 11:40:16;;;;;;;;;;;27.10;95.60;;;;;;4992938;28;19909;-70
2023/09/03 11:42:50;;;;;;;;;;;27.20;95.70;;;;;;4992073;28;19905;-69
2023/09/03 11:45:16;;;;;;;;;;;27.40;96.20;;;;;;4989241;28;19912;-67
2023/09/03 11:47:49;;;;;;;;;;;27.40;95.80;;;;;;4974976;28;19924;-67
2023/09/03 11:50:17;;;;;;;;;;;27.60;95.90;;;;;;4990805;28;19960;-67
2023/09/03 11:52:49;;;;;;;;;;;27.50;96.20;;;;;;4987141;28;19916;-67
2023/09/03 11:55:16;;;;;;;;;;;27.40;96.30;;;;;;4992111;28;19913;-67
2023/09/03 11:57:43;;;;;;;;;;;27.20;96.40;;;;;;4989650;28;20438;-67
2023/09/03 12:00:11;;;;;;;;;;;27.20;96.50;;;;;;4994214;28;19906;-66
2023/09/03 12:02:38;;;;;;;;;;;27.40;96.60;;;;;;4983557;28;19914;-67
2023/09/03 12:05:05;;;;;;;;;;;27.40;96.50;;;;;;4986215;28;20005;-67
2023/09/03 12:07:31;;;;;;;;;;;27.50;96.50;;;;;;4973408;28;19933;-66
2023/09/03 12:09:57;;;;;;;;;;;27.60;96.50;;;;;;4974221;28;19910;-66
2023/09/03 12:12:23;;;;;;;;;;;27.80;96.30;;;;;;4986897;28;19959;-67
2023/09/03 12:14:49;;;;;;;;;;;28.20;96.00;;;;;;4989318;28;20314;-66
2023/09/03 12:17:25;;;;;;;;;;;28.20;95.10;;;;;;4987921;28;19913;-66
2023/09/03 12:19:51;;;;;;;;;;;28.40;95.20;;;;;;4969543;28;20359;-67
2023/09/03 12:22:19;;;;;;;;;;;27.90;95.20;;;;;;4987432;28;20040;-67
2023/09/03 12:24:51;;;;;;;;;;;27.40;95.30;;;;;;4993639;28;20000;-68
2023/09/03 12:27:18;;;;;;;;;;;27.10;95.20;;;;;;4983502;28;20364;-67
2023/09/03 12:29:44;;;;;;;;;;;27.10;95.10;;;;;;4991169;28;19997;-67
2023/09/03 12:32:14;;;;;;;;;;;27.10;95.00;;;;;;4984180;28;19932;-67
2023/09/03 12:34:43;;;;;;;;;;;27.20;95.40;;;;;;4991684;28;19932;-66
2023/09/03 12:37:09;;;;;;;;;;;27.50;94.70;;;;;;4988757;28;19952;-64
2023/09/03 12:39:36;;;;;;;;;;;27.70;94.90;;;;;;4991580;28;19910;-64
2023/09/03 12:42:03;;;;;;;;;;;27.70;94.10;;;;;;4987079;28;19920;-63
2023/09/03 12:44:29;;;;;;;;;;;27.30;94.90;;;;;;4995902;28;20335;-65
2023/09/03 12:46:56;;;;;;;;;;;27.30;94.90;;;;;;4989336;28;19921;-64
2023/09/03 12:49:22;;;;;;;;;;;27.60;94.60;;;;;;4987504;28;19964;-63
2023/09/03 12:51:49;;;;;;;;;;;27.80;94.20;;;;;;4976152;28;20302;-63
2023/09/03 12:54:15;;;;;;;;;;;27.90;93.90;;;;;;4991132;28;20294;-66
2023/09/03 12:56:41;;;;;;;;;;;28.00;93.80;;;;;;4993968;28;19916;-65
2023/09/03 12:59:07;;;;;;;;;;;28.00;93.20;;;;;;4995208;28;20363;-68
2023/09/03 13:01:35;;;;;;;;;;;28.00;92.80;;;;;;4996680;28;19909;-64
2023/09/03 13:04:02;;;;;;;;;;;27.80;93.00;;;;;;4984146;28;20466;-64
2023/09/03 13:06:28;;;;;;;;;;;27.70;92.50;;;;;;4990978;28;19912;-67
2023/09/03 13:08:54;;;;;;;;;;;27.80;92.60;;;;;;4994422;28;19952;-65
2023/09/03 13:11:21;;;;;;;;;;;27.60;92.30;;;;;;4994437;28;19945;-69
2023/09/03 13:13:50;;;;;;;;;;;27.60;91.50;;;;;;4974827;28;19913;-65
2023/09/03 13:16:20;;;;;;;;;;;27.20;91.70;;;;;;4977810;28;19909;-66
2023/09/03 13:18:46;;;;;;;;;;;27.30;91.90;;;;;;4992315;28;19913;-65
2023/09/03 13:21:12;;;;;;;;;;;27.40;91.20;;;;;;4991739;28;19932;-58
2023/09/03 13:23:39;;;;;;;;;;;27.10;91.70;;;;;;4989748;28;19910;-62
2023/09/03 13:26:05;;;;;;;;;;;26.90;91.60;;;;;;4988868;28;20009;-71
2023/09/03 13:28:34;;;;;;;;;;;26.60;91.60;;;;;;4987876;28;19909;-72
2023/09/03 13:31:02;;;;;;;;;;;26.60;91.30;;;;;;4992974;28;20350;-71
2023/09/03 13:33:28;;;;;;;;;;;26.70;90.60;;;;;;4991708;28;20032;-72
2023/09/03 13:35:55;;;;;;;;;;;26.70;90.60;;;;;;4982332;28;20316;-72
2023/09/03 13:38:23;;;;;;;;;;;26.60;90.60;;;;;;4980131;28;20000;-71
2023/09/03 13:40:49;;;;;;;;;;;26.60;91.20;;;;;;4972826;28;20016;-68
2023/09/03 13:43:16;;;;;;;;;;;26.70;90.80;;;;;;4994031;28;20348;-70
2023/09/03 13:45:51;;;;;;;;;;;26.70;90.70;;;;;;4988083;28;20367;-62
2023/09/03 13:48:17;;;;;;;;;;;26.20;91.10;;;;;;4988935;28;20790;-63
2023/09/03 13:50:43;;;;;;;;;;;25.90;91.40;;;;;;4986124;28;20045;-64
2023/09/03 13:53:09;;;;;;;;;;;25.60;92.10;;;;;;4988438;28;20402;-64
2023/09/03 13:55:35;;;;;;;;;;;25.90;92.30;;;;;;4990489;28;20364;-63
2023/09/03 13:58:01;;;;;;;;;;;26.10;91.60;;;;;;4995265;28;19980;-69
2023/09/03 14:00:29;;;;;;;;;;;26.00;91.10;;;;;;4991563;28;19905;-70
2023/09/03 14:02:55;;;;;;;;;;;26.00;91.20;;;;;;4989051;28;19909;-70
2023/09/03 14:05:21;;;;;;;;;;;25.90;91.20;;;;;;4994672;28;19909;-70
2023/09/03 14:07:47;;;;;;;;;;;25.70;91.80;;;;;;4966771;28;19969;-70
2023/09/03 14:10:14;;;;;;;;;;;25.80;91.70;;;;;;4997555;28;19917;-71
2023/09/03 14:12:40;;;;;;;;;;;25.80;91.40;;;;;;4990743;28;19928;-71
2023/09/03 14:15:06;;;;;;;;;;;25.90;91.40;;;;;;4992989;28;19960;-71
2023/09/03 14:17:34;;;;;;;;;;;25.90;91.20;;;;;;4993000;28;20536;-71
2023/09/03 14:20:02;;;;;;;;;;;25.90;90.80;;;;;;4989826;28;19966;-71
2023/09/03 14:22:28;;;;;;;;;;;25.90;90.90;;;;;;4995372;28;19929;-71